sensor_id;sensor_type;location;lat;lon;timestamp;temperature;humidity
66610;DHT22;53468;48.276;14.416;2022-07-29T00:05:30;19.60;99.90
66610;DHT22;53468;48.276;14.416;2022-07-29T00:11:02;19.50;99.90
66610;DHT22;53468;48.276;14.416;2022-07-29T00:16:36;19.50;99.90
66610;DHT22;53468;48.276;14.416;2022-07-29T00:22:10;19.50;99.90
66610;DHT22;53468;48.276;14.416;2022-07-29T00:27:47;19.40;99.90
66610;DHT22;53468;48.276;14.416;2022-07-29T00:33:22;19.30;99.90
66610;DHT22;53468;48.276;14.416;2022-07-29T00:38:56;19.20;99.90
66610;DHT22;53468;48.276;14.416;2022-07-29T00:44:29;19.10;99.90
66610;DHT22;53468;48.276;14.416;2022-07-29T00:50:05;19.10;99.90
66610;DHT22;53468;48.276;14.416;2022-07-29T00:55:38;19.00;99.90
66610;DHT22;53468;48.276;14.416;2022-07-29T01:01:11;18.90;99.90
66610;DHT22;53468;48.276;14.416;2022-07-29T01:06:47;18.90;99.90
66610;DHT22;53468;48.276;14.416;2022-07-29T01:12:27;18.80;99.90
66610;DHT22;53468;48.276;14.416;2022-07-29T01:18:10;18.60;99.90
66610;DHT22;53468;48.276;14.416;2022-07-29T01:24:04;18.60;99.90
66610;DHT22;53468;48.276;14.416;2022-07-29T01:29:46;18.60;99.90
66610;DHT22;53468;48.276;14.416;2022-07-29T01:35:24;18.60;99.90
66610;DHT22;53468;48.276;14.416;2022-07-29T01:41:02;18.60;99.90
66610;DHT22;53468;48.276;14.416;2022-07-29T01:46:44;18.60;99.90
66610;DHT22;53468;48.276;14.416;2022-07-29T01:52:25;18.70;99.90
66610;DHT22;53468;48.276;14.416;2022-07-29T01:58:00;18.90;99.90
66610;DHT22;53468;48.276;14.416;2022-07-29T02:03:44;18.80;99.90
66610;DHT22;53468;48.276;14.416;2022-07-29T02:09:21;18.70;99.90
66610;DHT22;53468;48.276;14.416;2022-07-29T02:14:58;18.70;99.90
66610;DHT22;53468;48.276;14.416;2022-07-29T02:20:38;18.70;99.90
66610;DHT22;53468;48.276;14.416;2022-07-29T02:26:13;18.70;99.90
66610;DHT22;53468;48.276;14.416;2022-07-29T02:31:53;18.70;99.90
66610;DHT22;53468;48.276;14.416;2022-07-29T02:37:32;18.80;99.90
66610;DHT22;53468;48.276;14.416;2022-07-29T02:43:07;18.80;99.90
66610;DHT22;53468;48.276;14.416;2022-07-29T02:48:51;18.70;99.90
66610;DHT22;53468;48.276;14.416;2022-07-29T02:54:38;18.70;99.90
66610;DHT22;53468;48.276;14.416;2022-07-29T03:00:15;18.70;99.90
66610;DHT22;53468;48.276;14.416;2022-07-29T03:05:51;18.70;99.90
66610;DHT22;53468;48.276;14.416;2022-07-29T03:11:30;18.70;99.90
66610;DHT22;53468;48.276;14.416;2022-07-29T03:17:10;18.60;99.90
66610;DHT22;53468;48.276;14.416;2022-07-29T03:22:47;18.60;99.90
66610;DHT22;53468;48.276;14.416;2022-07-29T03:28:24;18.60;99.90
66610;DHT22;53468;48.276;14.416;2022-07-29T03:33:59;18.60;99.90
66610;DHT22;53468;48.276;14.416;2022-07-29T03:39:41;18.60;99.90
66610;DHT22;53468;48.276;14.416;2022-07-29T03:45:20;18.60;99.90
66610;DHT22;53468;48.276;14.416;2022-07-29T03:50:57;18.50;99.90
66610;DHT22;53468;48.276;14.416;2022-07-29T03:56:35;18.50;99.90
66610;DHT22;53468;48.276;14.416;2022-07-29T04:02:15;18.50;99.90
66610;DHT22;53468;48.276;14.416;2022-07-29T04:07:55;18.60;99.90
66610;DHT22;53468;48.276;14.416;2022-07-29T04:13:31;18.50;99.90
66610;DHT22;53468;48.276;14.416;2022-07-29T04:19:08;18.50;99.90
66610;DHT22;53468;48.276;14.416;2022-07-29T04:24:44;18.50;99.90
66610;DHT22;53468;48.276;14.416;2022-07-29T04:30:19;18.60;99.90
66610;DHT22;53468;48.276;14.416;2022-07-29T04:35:57;18.60;99.90
66610;DHT22;53468;48.276;14.416;2022-07-29T04:41:32;18.80;99.90
66610;DHT22;53468;48.276;14.416;2022-07-29T04:47:08;19.00;99.90
66610;DHT22;53468;48.276;14.416;2022-07-29T04:52:47;19.20;99.90
66610;DHT22;53468;48.276;14.416;2022-07-29T04:58:21;19.30;99.90
66610;DHT22;53468;48.276;14.416;2022-07-29T05:03:56;19.50;99.90
66610;DHT22;53468;48.276;14.416;2022-07-29T05:09:32;19.50;99.90
66610;DHT22;53468;48.276;14.416;2022-07-29T05:15:09;19.50;99.90
66610;DHT22;53468;48.276;14.416;2022-07-29T05:20:44;19.50;99.90
66610;DHT22;53468;48.276;14.416;2022-07-29T05:26:21;19.50;99.90
66610;DHT22;53468;48.276;14.416;2022-07-29T05:31:54;19.60;99.90
66610;DHT22;53468;48.276;14.416;2022-07-29T05:37:27;19.60;99.90
66610;DHT22;53468;48.276;14.416;2022-07-29T05:43:01;19.70;99.90
66610;DHT22;53468;48.276;14.416;2022-07-29T05:48:35;19.90;99.90
66610;DHT22;53468;48.276;14.416;2022-07-29T05:54:08;20.00;99.90
66610;DHT22;53468;48.276;14.416;2022-07-29T05:59:42;20.10;99.90
66610;DHT22;53468;48.276;14.416;2022-07-29T06:05:14;20.10;99.90
66610;DHT22;53468;48.276;14.416;2022-07-29T06:10:47;20.10;99.90
66610;DHT22;53468;48.276;14.416;2022-07-29T06:16:22;20.20;99.90
66610;DHT22;53468;48.276;14.416;2022-07-29T06:21:54;20.30;99.90
66610;DHT22;53468;48.276;14.416;2022-07-29T06:27:26;20.40;99.90
66610;DHT22;53468;48.276;14.416;2022-07-29T06:33:02;20.50;99.90
66610;DHT22;53468;48.276;14.416;2022-07-29T06:38:34;20.60;99.90
66610;DHT22;53468;48.276;14.416;2022-07-29T06:44:06;20.80;99.90
66610;DHT22;53468;48.276;14.416;2022-07-29T06:49:40;21.10;99.90
66610;DHT22;53468;48.276;14.416;2022-07-29T06:55:12;21.20;99.90
66610;DHT22;53468;48.276;14.416;2022-07-29T07:00:44;21.30;99.90
66610;DHT22;53468;48.276;14.416;2022-07-29T07:06:18;21.50;99.90
66610;DHT22;53468;48.276;14.416;2022-07-29T07:11:50;21.80;99.90
66610;DHT22;53468;48.276;14.416;2022-07-29T07:17:22;22.00;99.90
66610;DHT22;53468;48.276;14.416;2022-07-29T07:22:56;22.20;99.90
66610;DHT22;53468;48.276;14.416;2022-07-29T07:28:28;22.30;99.90
66610;DHT22;53468;48.276;14.416;2022-07-29T07:34:01;22.40;99.90
66610;DHT22;53468;48.276;14.416;2022-07-29T07:39:34;22.30;99.90
66610;DHT22;53468;48.276;14.416;2022-07-29T07:45:08;22.30;99.90
66610;DHT22;53468;48.276;14.416;2022-07-29T07:50:40;22.10;99.90
66610;DHT22;53468;48.276;14.416;2022-07-29T07:56:15;21.90;99.90
66610;DHT22;53468;48.276;14.416;2022-07-29T08:01:47;21.80;99.90
66610;DHT22;53468;48.276;14.416;2022-07-29T08:07:20;21.70;99.90
66610;DHT22;53468;48.276;14.416;2022-07-29T08:12:53;21.80;99.90
66610;DHT22;53468;48.276;14.416;2022-07-29T08:18:26;21.80;99.90
66610;DHT22;53468;48.276;14.416;2022-07-29T08:23:59;22.10;99.90
66610;DHT22;53468;48.276;14.416;2022-07-29T08:29:46;22.30;99.90
66610;DHT22;53468;48.276;14.416;2022-07-29T08:35:18;22.50;99.90
66610;DHT22;53468;48.276;14.416;2022-07-29T08:40:51;22.60;99.90
66610;DHT22;53468;48.276;14.416;2022-07-29T08:46:25;22.80;99.90
66610;DHT22;53468;48.276;14.416;2022-07-29T08:51:58;23.00;99.90
66610;DHT22;53468;48.276;14.416;2022-07-29T08:57:33;23.10;99.90
66610;DHT22;53468;48.276;14.416;2022-07-29T09:03:20;23.30;99.90
66610;DHT22;53468;48.276;14.416;2022-07-29T09:08:55;23.40;99.90
66610;DHT22;53468;48.276;14.416;2022-07-29T09:14:30;23.70;99.90
66610;DHT22;53468;48.276;14.416;2022-07-29T09:20:10;23.90;99.90
66610;DHT22;53468;48.276;14.416;2022-07-29T09:25:43;24.10;98.40
66610;DHT22;53468;48.276;14.416;2022-07-29T09:31:15;24.60;96.60
66610;DHT22;53468;48.276;14.416;2022-07-29T09:36:50;24.80;94.40
66610;DHT22;53468;48.276;14.416;2022-07-29T09:42:30;24.90;94.70
66610;DHT22;53468;48.276;14.416;2022-07-29T09:48:13;25.00;98.00
66610;DHT22;53468;48.276;14.416;2022-07-29T09:53:47;25.10;94.20
66610;DHT22;53468;48.276;14.416;2022-07-29T09:59:21;25.40;95.10
66610;DHT22;53468;48.276;14.416;2022-07-29T10:04:57;25.90;94.70
66610;DHT22;53468;48.276;14.416;2022-07-29T10:10:32;26.10;93.40
66610;DHT22;53468;48.276;14.416;2022-07-29T10:16:12;26.20;94.40
66610;DHT22;53468;48.276;14.416;2022-07-29T10:21:44;26.40;93.10
66610;DHT22;53468;48.276;14.416;2022-07-29T10:27:18;26.60;92.10
66610;DHT22;53468;48.276;14.416;2022-07-29T10:33:18;26.50;91.20
66610;DHT22;53468;48.276;14.416;2022-07-29T10:38:57;26.10;92.00
66610;DHT22;53468;48.276;14.416;2022-07-29T10:44:33;26.40;93.30
66610;DHT22;53468;48.276;14.416;2022-07-29T10:50:06;26.90;92.40
66610;DHT22;53468;48.276;14.416;2022-07-29T10:55:39;26.90;90.50
66610;DHT22;53468;48.276;14.416;2022-07-29T11:01:30;27.10;94.30
66610;DHT22;53468;48.276;14.416;2022-07-29T11:07:08;27.30;93.00
66610;DHT22;53468;48.276;14.416;2022-07-29T11:12:47;27.40;94.90
66610;DHT22;53468;48.276;14.416;2022-07-29T11:18:21;27.50;93.00
66610;DHT22;53468;48.276;14.416;2022-07-29T11:24:11;27.80;89.20
66610;DHT22;53468;48.276;14.416;2022-07-29T11:29:52;28.00;92.50
66610;DHT22;53468;48.276;14.416;2022-07-29T11:35:26;28.00;92.00
66610;DHT22;53468;48.276;14.416;2022-07-29T11:41:23;27.70;90.40
66610;DHT22;53468;48.276;14.416;2022-07-29T11:46:56;28.00;93.60
66610;DHT22;53468;48.276;14.416;2022-07-29T11:52:35;28.20;93.50
66610;DHT22;53468;48.276;14.416;2022-07-29T11:58:08;28.20;90.40
66610;DHT22;53468;48.276;14.416;2022-07-29T12:03:40;28.40;94.10
66610;DHT22;53468;48.276;14.416;2022-07-29T12:09:13;28.40;92.10
66610;DHT22;53468;48.276;14.416;2022-07-29T12:14:46;28.50;91.90
66610;DHT22;53468;48.276;14.416;2022-07-29T12:20:23;28.50;89.50
66610;DHT22;53468;48.276;14.416;2022-07-29T12:25:58;28.60;89.40
66610;DHT22;53468;48.276;14.416;2022-07-29T12:31:30;28.40;86.00
66610;DHT22;53468;48.276;14.416;2022-07-29T12:37:03;28.90;93.20
66610;DHT22;53468;48.276;14.416;2022-07-29T12:42:37;28.90;87.60
66610;DHT22;53468;48.276;14.416;2022-07-29T12:48:10;29.10;85.80
66610;DHT22;53468;48.276;14.416;2022-07-29T12:54:02;28.80;85.30
66610;DHT22;53468;48.276;14.416;2022-07-29T12:59:36;29.00;88.90
66610;DHT22;53468;48.276;14.416;2022-07-29T13:05:09;28.90;87.40
66610;DHT22;53468;48.276;14.416;2022-07-29T13:10:43;29.00;83.20
66610;DHT22;53468;48.276;14.416;2022-07-29T13:16:16;28.90;88.30
66610;DHT22;53468;48.276;14.416;2022-07-29T13:21:49;28.70;80.10
66610;DHT22;53468;48.276;14.416;2022-07-29T13:27:22;29.00;81.30
66610;DHT22;53468;48.276;14.416;2022-07-29T13:32:57;29.00;81.50
66610;DHT22;53468;48.276;14.416;2022-07-29T13:38:29;29.10;85.70
66610;DHT22;53468;48.276;14.416;2022-07-29T13:44:01;29.10;80.30
66610;DHT22;53468;48.276;14.416;2022-07-29T13:49:37;29.10;82.80
66610;DHT22;53468;48.276;14.416;2022-07-29T13:55:09;29.20;86.50
66610;DHT22;53468;48.276;14.416;2022-07-29T14:00:41;29.20;84.90
66610;DHT22;53468;48.276;14.416;2022-07-29T14:06:15;29.10;87.00
66610;DHT22;53468;48.276;14.416;2022-07-29T14:11:47;29.10;79.50
66610;DHT22;53468;48.276;14.416;2022-07-29T14:17:20;28.80;78.90
66610;DHT22;53468;48.276;14.416;2022-07-29T14:22:54;29.00;82.80
66610;DHT22;53468;48.276;14.416;2022-07-29T14:28:27;28.90;79.30
66610;DHT22;53468;48.276;14.416;2022-07-29T14:33:59;28.80;76.70
66610;DHT22;53468;48.276;14.416;2022-07-29T14:39:33;29.10;82.50
66610;DHT22;53468;48.276;14.416;2022-07-29T14:45:07;29.00;82.40
66610;DHT22;53468;48.276;14.416;2022-07-29T14:50:39;29.10;83.70
66610;DHT22;53468;48.276;14.416;2022-07-29T14:56:15;29.10;80.50
66610;DHT22;53468;48.276;14.416;2022-07-29T15:01:47;29.20;83.00
66610;DHT22;53468;48.276;14.416;2022-07-29T15:07:20;29.10;75.60
66610;DHT22;53468;48.276;14.416;2022-07-29T15:12:54;29.10;74.80
66610;DHT22;53468;48.276;14.416;2022-07-29T15:18:26;29.10;76.10
66610;DHT22;53468;48.276;14.416;2022-07-29T15:23:58;29.00;79.80
66610;DHT22;53468;48.276;14.416;2022-07-29T15:29:32;28.90;81.50
66610;DHT22;53468;48.276;14.416;2022-07-29T15:35:04;28.80;83.30
66610;DHT22;53468;48.276;14.416;2022-07-29T15:40:37;28.70;80.00
66610;DHT22;53468;48.276;14.416;2022-07-29T15:46:15;28.60;78.70
66610;DHT22;53468;48.276;14.416;2022-07-29T15:52:06;28.60;82.30
66610;DHT22;53468;48.276;14.416;2022-07-29T15:57:38;28.60;79.70
66610;DHT22;53468;48.276;14.416;2022-07-29T16:03:12;28.50;79.50
66610;DHT22;53468;48.276;14.416;2022-07-29T16:08:44;28.50;80.00
66610;DHT22;53468;48.276;14.416;2022-07-29T16:14:16;28.40;80.30
66610;DHT22;53468;48.276;14.416;2022-07-29T16:19:50;28.30;82.60
66610;DHT22;53468;48.276;14.416;2022-07-29T16:25:23;28.40;85.70
66610;DHT22;53468;48.276;14.416;2022-07-29T16:30:55;28.40;85.60
66610;DHT22;53468;48.276;14.416;2022-07-29T16:36:29;28.30;87.00
66610;DHT22;53468;48.276;14.416;2022-07-29T16:42:01;28.20;87.10
66610;DHT22;53468;48.276;14.416;2022-07-29T16:47:33;27.90;86.60
66610;DHT22;53468;48.276;14.416;2022-07-29T16:53:07;27.70;86.60
66610;DHT22;53468;48.276;14.416;2022-07-29T16:58:39;27.60;88.00
66610;DHT22;53468;48.276;14.416;2022-07-29T17:04:11;27.40;88.70
66610;DHT22;53468;48.276;14.416;2022-07-29T17:09:45;27.00;90.00
66610;DHT22;53468;48.276;14.416;2022-07-29T17:15:18;26.80;89.80
66610;DHT22;53468;48.276;14.416;2022-07-29T17:20:50;26.60;90.70
66610;DHT22;53468;48.276;14.416;2022-07-29T17:26:24;26.50;89.30
66610;DHT22;53468;48.276;14.416;2022-07-29T17:31:57;26.40;91.40
66610;DHT22;53468;48.276;14.416;2022-07-29T17:37:29;26.20;91.30
66610;DHT22;53468;48.276;14.416;2022-07-29T17:43:03;25.90;91.40
66610;DHT22;53468;48.276;14.416;2022-07-29T17:48:38;25.80;92.20
66610;DHT22;53468;48.276;14.416;2022-07-29T17:54:10;25.50;92.60
66610;DHT22;53468;48.276;14.416;2022-07-29T17:59:44;25.30;94.10
66610;DHT22;53468;48.276;14.416;2022-07-29T18:05:16;25.10;94.50
66610;DHT22;53468;48.276;14.416;2022-07-29T18:10:48;24.90;95.80
66610;DHT22;53468;48.276;14.416;2022-07-29T18:16:22;24.70;95.80
66610;DHT22;53468;48.276;14.416;2022-07-29T18:21:54;24.50;96.20
66610;DHT22;53468;48.276;14.416;2022-07-29T18:27:26;24.20;97.40
66610;DHT22;53468;48.276;14.416;2022-07-29T18:33:01;24.00;98.90
66610;DHT22;53468;48.276;14.416;2022-07-29T18:38:33;23.90;99.20
66610;DHT22;53468;48.276;14.416;2022-07-29T18:44:05;23.60;99.20
66610;DHT22;53468;48.276;14.416;2022-07-29T18:49:40;23.50;99.80
66610;DHT22;53468;48.276;14.416;2022-07-29T18:55:13;23.30;99.90
66610;DHT22;53468;48.276;14.416;2022-07-29T19:00:45;23.20;99.90
66610;DHT22;53468;48.276;14.416;2022-07-29T19:06:18;23.00;99.90
66610;DHT22;53468;48.276;14.416;2022-07-29T19:11:50;23.00;99.90
66610;DHT22;53468;48.276;14.416;2022-07-29T19:17:23;22.80;99.90
66610;DHT22;53468;48.276;14.416;2022-07-29T19:22:56;22.60;99.90
66610;DHT22;53468;48.276;14.416;2022-07-29T19:28:28;22.60;99.90
66610;DHT22;53468;48.276;14.416;2022-07-29T19:34:00;22.50;99.90
66610;DHT22;53468;48.276;14.416;2022-07-29T19:39:34;22.50;99.90
66610;DHT22;53468;48.276;14.416;2022-07-29T19:45:13;22.40;99.90
66610;DHT22;53468;48.276;14.416;2022-07-29T19:50:45;22.40;99.90
66610;DHT22;53468;48.276;14.416;2022-07-29T19:56:18;22.30;99.90
66610;DHT22;53468;48.276;14.416;2022-07-29T20:01:50;22.30;99.90
66610;DHT22;53468;48.276;14.416;2022-07-29T20:07:22;22.20;99.90
66610;DHT22;53468;48.276;14.416;2022-07-29T20:12:56;22.20;99.90
66610;DHT22;53468;48.276;14.416;2022-07-29T20:18:28;22.20;99.90
66610;DHT22;53468;48.276;14.416;2022-07-29T20:24:01;22.30;99.90
66610;DHT22;53468;48.276;14.416;2022-07-29T20:29:35;22.70;99.90
66610;DHT22;53468;48.276;14.416;2022-07-29T20:35:08;22.90;99.90
66610;DHT22;53468;48.276;14.416;2022-07-29T20:40:41;23.00;99.90
66610;DHT22;53468;48.276;14.416;2022-07-29T20:46:17;23.00;99.90
66610;DHT22;53468;48.276;14.416;2022-07-29T20:51:49;23.00;99.90
66610;DHT22;53468;48.276;14.416;2022-07-29T20:57:37;22.80;99.90
66610;DHT22;53468;48.276;14.416;2022-07-29T21:03:12;21.80;99.90
66610;DHT22;53468;48.276;14.416;2022-07-29T21:08:47;21.40;99.90
66610;DHT22;53468;48.276;14.416;2022-07-29T21:14:20;21.10;99.90
66610;DHT22;53468;48.276;14.416;2022-07-29T21:20:16;20.50;99.90
66610;DHT22;53468;48.276;14.416;2022-07-29T21:25:50;20.00;99.90
66610;DHT22;53468;48.276;14.416;2022-07-29T21:31:23;19.80;99.90
66610;DHT22;53468;48.276;14.416;2022-07-29T21:36:58;19.60;99.90
66610;DHT22;53468;48.276;14.416;2022-07-29T21:42:36;19.50;99.90
66610;DHT22;53468;48.276;14.416;2022-07-29T21:48:09;19.40;99.90
66610;DHT22;53468;48.276;14.416;2022-07-29T21:53:43;19.30;99.90
66610;DHT22;53468;48.276;14.416;2022-07-29T21:59:16;19.20;99.90
66610;DHT22;53468;48.276;14.416;2022-07-29T22:04:49;19.20;99.90
66610;DHT22;53468;48.276;14.416;2022-07-29T22:10:23;19.10;99.90
66610;DHT22;53468;48.276;14.416;2022-07-29T22:15:56;19.20;99.90
66610;DHT22;53468;48.276;14.416;2022-07-29T22:21:29;19.10;99.90
66610;DHT22;53468;48.276;14.416;2022-07-29T22:27:03;19.10;99.90
66610;DHT22;53468;48.276;14.416;2022-07-29T22:32:36;19.10;99.90
66610;DHT22;53468;48.276;14.416;2022-07-29T22:38:09;19.10;99.90
66610;DHT22;53468;48.276;14.416;2022-07-29T22:43:44;19.00;99.90
66610;DHT22;53468;48.276;14.416;2022-07-29T22:49:16;19.00;99.90
66610;DHT22;53468;48.276;14.416;2022-07-29T22:54:49;19.00;99.90
66610;DHT22;53468;48.276;14.416;2022-07-29T23:00:24;18.90;99.90
66610;DHT22;53468;48.276;14.416;2022-07-29T23:05:56;18.90;99.90
66610;DHT22;53468;48.276;14.416;2022-07-29T23:11:29;18.90;99.90
66610;DHT22;53468;48.276;14.416;2022-07-29T23:17:03;18.90;99.90
66610;DHT22;53468;48.276;14.416;2022-07-29T23:22:36;18.80;99.90
66610;DHT22;53468;48.276;14.416;2022-07-29T23:28:10;18.70;99.90
66610;DHT22;53468;48.276;14.416;2022-07-29T23:33:44;18.70;99.90
66610;DHT22;53468;48.276;14.416;2022-07-29T23:39:17;18.60;99.90
66610;DHT22;53468;48.276;14.416;2022-07-29T23:45:12;18.40;99.90
66610;DHT22;53468;48.276;14.416;2022-07-29T23:50:46;18.30;99.90
66610;DHT22;53468;48.276;14.416;2022-07-29T23:56:19;18.30;99.90
